Time;durP1;ratioP1;P1;durP2;ratioP2;P2;SDS_P1;SDS_P2;PMS_P1;PMS_P2;Temp;Humidity;BMP_temperature;BMP_pressure;BME280_temperature;BME280_humidity;BME280_pressure;Samples;Min_cycle;Max_cycle;Signal;HPM_P1;HPM_P2
2021/04/24 00:00:29;;;;;;;1999.90;999.90;;;7.20;99.90;;;;;;5058405;28;20223;-87
2021/04/24 00:02:55;;;;;;;1999.90;999.90;;;7.10;99.90;;;;;;5057299;28;20188;-87
2021/04/24 00:05:23;;;;;;;1999.90;999.90;;;7.10;99.90;;;;;;5057518;28;20482;-87
2021/04/24 00:07:50;;;;;;;1999.90;999.90;;;7.00;99.90;;;;;;5056784;28;20419;-87
2021/04/24 00:10:16;;;;;;;1999.90;999.90;;;6.80;99.90;;;;;;5057965;28;20157;-87
2021/04/24 00:12:43;;;;;;;1999.90;999.90;;;6.70;99.90;;;;;;5057637;28;20193;-87
2021/04/24 00:15:12;;;;;;;1999.90;999.90;;;6.90;99.90;;;;;;5057199;28;20157;-87
2021/04/24 00:17:38;;;;;;;1999.90;999.90;;;6.90;99.90;;;;;;5057735;28;20185;-87
2021/04/24 00:20:09;;;;;;;1999.90;999.90;;;7.00;99.90;;;;;;5056420;28;20195;-87
2021/04/24 00:22:35;;;;;;;1999.90;999.90;;;7.00;99.90;;;;;;5057652;28;20460;-87
2021/04/24 00:25:01;;;;;;;1999.90;999.90;;;6.90;99.90;;;;;;5058171;28;20172;-87
2021/04/24 00:27:27;;;;;;;1999.90;999.90;;;6.80;99.90;;;;;;5057410;28;20663;-87
2021/04/24 00:29:52;;;;;;;1999.90;999.90;;;6.70;99.90;;;;;;5057368;28;20161;-87
2021/04/24 00:32:18;;;;;;;1999.90;999.90;;;6.60;99.90;;;;;;5057823;28;20403;-87
2021/04/24 00:34:44;;;;;;;1999.90;999.90;;;6.40;99.90;;;;;;5057722;28;20646;-87
2021/04/24 00:37:09;;;;;;;1999.90;999.90;;;6.40;99.90;;;;;;5057038;28;20192;-87
2021/04/24 00:39:35;;;;;;;1999.90;999.90;;;6.40;99.90;;;;;;5058064;28;20222;-87
2021/04/24 00:42:01;;;;;;;1999.90;999.90;;;6.30;99.90;;;;;;5056451;28;20196;-87
2021/04/24 00:44:26;;;;;;;1999.90;999.90;;;6.50;99.90;;;;;;5057535;28;20623;-87
2021/04/24 00:46:52;;;;;;;1999.90;999.90;;;6.50;99.90;;;;;;5058049;28;20234;-87
2021/04/24 00:49:18;;;;;;;1999.90;999.90;;;6.40;99.90;;;;;;5057172;28;20160;-87
2021/04/24 00:51:43;;;;;;;1999.90;999.90;;;6.30;99.90;;;;;;5057737;28;20175;-86
2021/04/24 00:54:09;;;;;;;1999.90;999.90;;;6.30;99.90;;;;;;5057386;28;20696;-87
2021/04/24 00:56:35;;;;;;;1999.90;999.90;;;6.30;99.90;;;;;;5057414;28;20184;-87
2021/04/24 00:59:01;;;;;;;1999.90;999.90;;;6.30;99.90;;;;;;5055573;28;20902;-87
2021/04/24 01:01:27;;;;;;;1999.90;999.90;;;6.30;99.90;;;;;;5057546;28;20188;-87
2021/04/24 01:03:53;;;;;;;1999.90;999.90;;;6.20;99.90;;;;;;5057003;28;20188;-87
2021/04/24 01:06:19;;;;;;;1999.90;999.90;;;6.20;99.90;;;;;;5057178;28;20168;-87
2021/04/24 01:08:45;;;;;;;1999.90;999.90;;;6.30;99.90;;;;;;5057384;28;20161;-87
2021/04/24 01:11:10;;;;;;;1999.90;999.90;;;6.10;99.90;;;;;;5056154;28;20697;-87
2021/04/24 01:13:36;;;;;;;1999.90;999.90;;;6.20;99.90;;;;;;5057888;28;20403;-87
2021/04/24 01:16:02;;;;;;;1999.90;999.90;;;6.10;99.90;;;;;;5061353;28;20169;-87
2021/04/24 01:18:28;;;;;;;1999.90;999.90;;;6.10;99.90;;;;;;5061130;28;20184;-87
2021/04/24 01:20:56;;;;;;;1999.90;999.90;;;6.00;99.90;;;;;;5060750;28;20727;-87
2021/04/24 01:23:22;;;;;;;1999.90;999.90;;;6.00;99.90;;;;;;5060253;28;20161;-87
2021/04/24 01:25:49;;;;;;;1999.90;999.90;;;5.90;99.90;;;;;;5060807;28;20167;-87
2021/04/24 01:28:15;;;;;;;1999.90;999.90;;;5.90;99.90;;;;;;5060691;28;20551;-87
2021/04/24 01:30:43;;;;;;;1999.90;999.90;;;6.00;99.90;;;;;;5060226;28;20199;-87
2021/04/24 01:33:11;;;;;;;1999.90;999.90;;;5.90;99.90;;;;;;5060440;28;20513;-87
2021/04/24 01:35:40;;;;;;;1999.90;999.90;;;5.90;99.90;;;;;;5060257;28;20168;-87
2021/04/24 01:38:07;;;;;;;1999.90;999.90;;;6.00;99.90;;;;;;5060058;28;20184;-87
2021/04/24 01:40:33;;;;;;;1999.90;999.90;;;6.10;99.90;;;;;;5060104;28;20164;-87
2021/04/24 01:42:59;;;;;;;1999.90;999.90;;;6.00;99.90;;;;;;5060525;28;20164;-87
2021/04/24 01:45:25;;;;;;;1999.90;999.90;;;5.80;99.90;;;;;;5060383;28;20163;-87
2021/04/24 01:47:52;;;;;;;1999.90;999.90;;;5.80;99.90;;;;;;5060536;28;20675;-87
2021/04/24 01:50:26;;;;;;;1999.90;999.90;;;5.70;99.90;;;;;;5059985;28;20165;-87
2021/04/24 01:52:53;;;;;;;1999.90;999.90;;;5.80;99.90;;;;;;5059515;28;20153;-87
2021/04/24 01:55:26;;;;;;;1999.90;999.90;;;5.70;99.90;;;;;;5059718;28;20169;-87
2021/04/24 01:57:53;;;;;;;1999.90;999.90;;;5.70;99.90;;;;;;5059738;28;20227;-87
2021/04/24 02:00:23;;;;;;;1999.90;999.90;;;5.50;99.90;;;;;;5059951;28;20172;-87
2021/04/24 02:02:50;;;;;;;1999.90;999.90;;;5.50;99.90;;;;;;5127431;22;20183;-80
2021/04/24 02:05:16;;;;;;;1999.90;999.90;;;5.40;99.90;;;;;;5025879;28;20245;-81
2021/04/24 02:07:51;;;;;;;1999.90;999.90;;;5.40;99.90;;;;;;5044068;28;20215;-81
2021/04/24 02:10:17;;;;;;;1999.90;999.90;;;5.40;99.90;;;;;;5044228;28;20247;-81
2021/04/24 02:12:43;;;;;;;1999.90;999.90;;;5.40;99.90;;;;;;5044302;28;20629;-81
2021/04/24 02:15:09;;;;;;;1999.90;999.90;;;5.40;99.90;;;;;;5044016;28;20524;-81
2021/04/24 02:17:34;;;;;;;1999.90;999.90;;;5.30;99.90;;;;;;5043767;28;20212;-81
2021/04/24 02:20:00;;;;;;;1999.90;999.90;;;5.20;99.90;;;;;;5026272;28;20405;-81
2021/04/24 02:22:26;;;;;;;1999.90;999.90;;;5.30;99.90;;;;;;5043773;28;20193;-81
2021/04/24 02:25:01;;;;;;;1999.90;999.90;;;5.20;99.90;;;;;;5043154;28;20157;-81
2021/04/24 02:27:28;;;;;;;1999.90;999.90;;;5.10;99.90;;;;;;5043672;28;20184;-81
2021/04/24 02:29:55;;;;;;;1999.90;999.90;;;5.10;99.90;;;;;;5043788;28;20532;-81
2021/04/24 02:32:22;;;;;;;1999.90;999.90;;;5.00;99.90;;;;;;5025706;28;20169;-81
2021/04/24 02:34:49;;;;;;;1999.90;999.90;;;5.00;99.90;;;;;;5043320;28;20161;-81
2021/04/24 02:37:18;;;;;;;1999.90;999.90;;;5.00;99.90;;;;;;5043230;28;20695;-81
2021/04/24 02:39:46;;;;;;;1999.90;999.90;;;4.90;99.90;;;;;;5043438;28;20687;-81
2021/04/24 02:42:18;;;;;;;1999.90;999.90;;;4.90;99.90;;;;;;5043258;28;20200;-80
2021/04/24 02:44:44;;;;;;;1999.90;999.90;;;4.80;99.90;;;;;;5043714;28;20157;-80
2021/04/24 02:47:11;;;;;;;1999.90;999.90;;;4.80;99.90;;;;;;5043074;28;20185;-81
2021/04/24 02:49:37;;;;;;;1999.90;999.90;;;4.80;99.90;;;;;;5043192;28;20806;-81
2021/04/24 02:52:05;;;;;;;1999.90;999.90;;;4.70;99.90;;;;;;5025829;28;20196;-81
2021/04/24 02:54:31;;;;;;;1999.90;999.90;;;4.80;99.90;;;;;;5025344;28;20169;-83
2021/04/24 02:56:57;;;;;;;1999.90;999.90;;;4.80;99.90;;;;;;5043520;28;20207;-81
2021/04/24 02:59:23;;;;;;;1999.90;999.90;;;4.70;99.90;;;;;;5042351;28;20688;-80
2021/04/24 03:01:49;;;;;;;1999.90;999.90;;;4.70;99.90;;;;;;5043223;28;20196;-80
2021/04/24 03:04:18;;;;;;;1999.90;999.90;;;4.70;99.90;;;;;;5040638;28;20180;-81
2021/04/24 03:06:45;;;;;;;1999.90;999.90;;;4.80;99.90;;;;;;5043582;28;20196;-82
2021/04/24 03:09:11;;;;;;;1999.90;999.90;;;4.80;99.90;;;;;;5024894;28;20170;-83
2021/04/24 03:11:41;;;;;;;1999.90;999.90;;;4.70;99.90;;;;;;5025438;28;20430;-81
2021/04/24 03:14:07;;;;;;;1999.90;999.90;;;4.70;99.90;;;;;;5024877;28;20188;-82
2021/04/24 03:16:34;;;;;;;1999.90;999.90;;;4.60;99.90;;;;;;5024297;28;20189;-81
2021/04/24 03:19:00;;;;;;;1999.90;999.90;;;4.50;99.90;;;;;;5042303;28;20404;-83
2021/04/24 03:21:27;;;;;;;1999.90;999.90;;;4.50;99.90;;;;;;5024844;28;20280;-83
2021/04/24 03:23:53;;;;;;;1999.90;999.90;;;4.40;99.90;;;;;;5041850;28;20572;-81
2021/04/24 03:26:21;;;;;;;1999.90;999.90;;;4.50;99.90;;;;;;5042389;28;20175;-81
2021/04/24 03:28:46;;;;;;;1999.90;999.90;;;4.50;99.90;;;;;;5042399;28;20248;-83
2021/04/24 03:31:12;;;;;;;1999.90;999.90;;;4.50;99.90;;;;;;5042238;28;20228;-82
2021/04/24 03:33:39;;;;;;;1999.90;999.90;;;4.40;99.90;;;;;;5042233;28;20166;-81
2021/04/24 03:36:06;;;;;;;1999.90;999.90;;;4.40;99.90;;;;;;5042680;28;20172;-81
2021/04/24 03:38:32;;;;;;;1999.90;999.90;;;4.30;99.90;;;;;;5042214;28;20185;-83
2021/04/24 03:40:58;;;;;;;1999.90;999.90;;;4.30;99.90;;;;;;5041956;28;20263;-82
2021/04/24 03:43:24;;;;;;;1999.90;999.90;;;4.30;99.90;;;;;;5041761;28;20161;-81
2021/04/24 03:45:49;;;;;;;1999.90;999.90;;;4.20;99.90;;;;;;5042215;28;20176;-81
2021/04/24 03:48:15;;;;;;;1999.90;999.90;;;4.10;99.90;;;;;;5042138;28;20204;-81
2021/04/24 03:50:41;;;;;;;1999.90;999.90;;;4.20;99.90;;;;;;5024823;28;20177;-83
2021/04/24 03:53:07;;;;;;;1999.90;999.90;;;4.20;99.90;;;;;;5042601;28;20408;-81
2021/04/24 03:55:33;;;;;;;1999.90;999.90;;;4.20;99.90;;;;;;5042283;28;20166;-83
2021/04/24 03:58:00;;;;;;;1999.90;999.90;;;4.20;99.90;;;;;;5042036;28;20886;-81
2021/04/24 04:00:28;;;;;;;1999.90;999.90;;;4.20;99.90;;;;;;5041697;28;20404;-81
2021/04/24 04:02:59;;;;;;;1999.90;999.90;;;4.20;99.90;;;;;;5041689;28;20657;-81
2021/04/24 04:05:28;;;;;;;1999.90;999.90;;;4.20;99.90;;;;;;5041963;28;20176;-81
2021/04/24 04:07:55;;;;;;;1999.90;999.90;;;4.20;99.90;;;;;;5024201;28;20189;-79
2021/04/24 04:10:22;;;;;;;1999.90;999.90;;;4.20;99.90;;;;;;5046054;28;20506;-80
2021/04/24 04:12:48;;;;;;;1999.90;999.90;;;4.10;99.90;;;;;;5045763;28;20165;-83
2021/04/24 04:15:16;;;;;;;1999.90;999.90;;;4.10;99.90;;;;;;5043250;28;20166;-82
2021/04/24 04:18:04;;;;;;;1999.90;999.90;;;4.00;99.90;;;;;;5042022;28;20547;-80
2021/04/24 04:20:31;;;;;;;1999.90;999.90;;;4.00;99.90;;;;;;5041233;28;20157;-81
2021/04/24 04:22:57;;;;;;;1999.90;999.90;;;4.00;99.90;;;;;;5041631;28;20207;-83
2021/04/24 04:25:24;;;;;;;1999.90;999.90;;;4.10;99.90;;;;;;5041419;28;20295;-83
2021/04/24 04:27:56;;;;;;;1999.90;999.90;;;4.10;99.90;;;;;;5023382;28;20189;-82
2021/04/24 04:30:23;;;;;;;1999.90;999.90;;;4.10;99.90;;;;;;5040480;28;20165;-83
2021/04/24 04:32:49;;;;;;;1999.90;999.90;;;4.00;99.90;;;;;;5041519;28;20157;-83
2021/04/24 04:35:16;;;;;;;1999.90;999.90;;;4.10;99.90;;;;;;5041129;28;20172;-83
2021/04/24 04:37:42;;;;;;;1999.90;999.90;;;4.10;99.90;;;;;;5041081;28;20452;-83
2021/04/24 04:40:09;;;;;;;1999.90;999.90;;;4.20;99.90;;;;;;5040839;28;20169;-81
2021/04/24 04:42:35;;;;;;;1999.90;999.90;;;4.20;99.90;;;;;;5024184;28;20303;-83
2021/04/24 04:45:00;;;;;;;1999.90;999.90;;;4.20;99.90;;;;;;5041301;28;20161;-83
2021/04/24 04:47:29;;;;;;;1999.90;999.90;;;4.20;99.90;;;;;;5041386;28;20177;-81
2021/04/24 04:49:55;;;;;;;1999.90;999.90;;;4.20;99.90;;;;;;5044847;28;20161;-83
2021/04/24 04:52:20;;;;;;;1999.90;999.90;;;4.20;99.90;;;;;;5045266;28;20173;-80
2021/04/24 04:54:46;;;;;;;1999.90;999.90;;;4.20;99.90;;;;;;5045029;28;20165;-80
2021/04/24 04:57:12;;;;;;;1999.90;999.90;;;4.10;99.90;;;;;;5026675;28;20196;-81
2021/04/24 04:59:37;;;;;;;1999.90;999.90;;;4.10;99.90;;;;;;5044488;28;20196;-81
2021/04/24 05:02:03;;;;;;;1999.90;999.90;;;4.20;99.90;;;;;;5044692;28;20280;-81
2021/04/24 05:04:29;;;;;;;1999.90;999.90;;;4.20;99.90;;;;;;5044225;28;20450;-80
2021/04/24 05:06:54;;;;;;;1999.90;999.90;;;4.30;99.90;;;;;;5044587;28;20205;-80
2021/04/24 05:09:22;;;;;;;1999.90;999.90;;;4.40;99.90;;;;;;5026938;28;20528;-83
2021/04/24 05:11:53;;;;;;;1999.90;999.90;;;4.40;99.90;;;;;;5045087;28;20580;-83
2021/04/24 05:14:19;;;;;;;1999.90;999.90;;;4.50;99.90;;;;;;5026550;28;20705;-83
2021/04/24 05:16:45;;;;;;;1999.90;999.90;;;4.50;99.90;;;;;;5044172;28;20220;-83
2021/04/24 05:19:11;;;;;;;1999.90;999.90;;;4.60;99.90;;;;;;5044563;28;20192;-83
2021/04/24 05:21:38;;;;;;;1999.90;999.90;;;4.70;99.90;;;;;;5044351;28;20227;-81
2021/04/24 05:24:06;;;;;;;1999.90;999.90;;;4.80;99.90;;;;;;5043971;28;20532;-83
2021/04/24 05:26:36;;;;;;;1999.90;999.90;;;4.90;99.90;;;;;;5025953;28;20201;-83
2021/04/24 05:29:02;;;;;;;1999.90;999.90;;;5.00;99.90;;;;;;5026630;28;20170;-83
2021/04/24 05:31:28;;;;;;;1999.90;999.90;;;5.10;99.90;;;;;;5044475;28;20220;-81
2021/04/24 05:33:54;;;;;;;1999.90;999.90;;;5.20;99.90;;;;;;5026496;28;20204;-82
2021/04/24 05:36:21;;;;;;;1999.90;999.90;;;5.20;99.90;;;;;;5044768;28;20176;-81
2021/04/24 05:38:50;;;;;;;1999.90;999.90;;;5.40;99.90;;;;;;5044244;28;20638;-82
2021/04/24 05:41:26;;;;;;;1999.90;999.90;;;5.50;99.90;;;;;;5026935;28;20246;-82
2021/04/24 05:43:56;;;;;;;1999.90;999.90;;;5.60;99.90;;;;;;5045289;28;20650;-83
2021/04/24 05:46:22;;;;;;;1999.90;999.90;;;5.70;99.90;;;;;;5045237;28;20160;-83
2021/04/24 05:48:48;;;;;;;1999.90;999.90;;;5.80;99.90;;;;;;5026659;28;20170;-83
2021/04/24 05:51:15;;;;;;;1999.90;999.90;;;5.90;99.90;;;;;;5045065;28;20169;-83
2021/04/24 05:53:42;;;;;;;1999.90;999.90;;;6.00;99.90;;;;;;5045237;28;20507;-83
2021/04/24 05:56:09;;;;;;;1999.90;999.90;;;6.10;99.90;;;;;;5027692;28;20184;-83
2021/04/24 05:58:35;;;;;;;1999.90;999.90;;;6.20;99.90;;;;;;5044797;28;20254;-83
2021/04/24 06:01:01;;;;;;;1999.90;999.90;;;6.40;99.90;;;;;;5045167;28;20224;-83
2021/04/24 06:03:30;;;;;;;1999.90;999.90;;;6.40;99.90;;;;;;5044731;28;20179;-83
2021/04/24 06:06:02;;;;;;;1999.90;999.90;;;6.50;99.90;;;;;;5026910;28;20858;-83
2021/04/24 06:08:27;;;;;;;1999.90;999.90;;;6.60;99.90;;;;;;5044678;28;20659;-82
2021/04/24 06:10:53;;;;;;;1999.90;999.90;;;6.60;99.90;;;;;;5044258;28;20175;-82
2021/04/24 06:13:20;;;;;;;1999.90;999.90;;;6.80;99.90;;;;;;5025662;28;20420;-82
2021/04/24 06:15:46;;;;;;;1999.90;999.90;;;6.90;99.90;;;;;;5025433;28;20200;-82
2021/04/24 06:18:17;;;;;;;1999.90;999.90;;;6.90;99.90;;;;;;5043637;28;20193;-82
2021/04/24 06:20:44;;;;;;;1999.90;999.90;;;7.10;99.90;;;;;;5043159;28;20197;-82
2021/04/24 06:23:11;;;;;;;1999.90;999.90;;;7.20;99.90;;;;;;5043342;28;20172;-82
2021/04/24 06:25:37;;;;;;;1999.90;999.90;;;7.30;99.90;;;;;;5025302;28;20173;-82
2021/04/24 06:28:03;;;;;;;1999.90;999.90;;;7.40;99.90;;;;;;5025655;28;20188;-82
2021/04/24 06:30:29;;;;;;;1999.90;999.90;;;7.50;99.90;;;;;;5043097;28;20404;-82
2021/04/24 06:32:55;;;;;;;1999.90;999.90;;;7.60;99.90;;;;;;5041762;28;20487;-82
2021/04/24 06:35:27;;;;;;;1999.90;999.90;;;7.70;99.90;;;;;;5024713;28;20218;-83
2021/04/24 06:37:56;;;;;;;1999.90;999.90;;;7.70;99.90;;;;;;5025199;28;20191;-82
2021/04/24 06:40:22;;;;;;;1999.90;999.90;;;7.70;99.90;;;;;;5042313;28;20172;-82
2021/04/24 06:42:51;;;;;;;1999.90;999.90;;;7.80;99.90;;;;;;5043093;28;20204;-83
2021/04/24 06:45:20;;;;;;;1999.90;999.90;;;7.80;99.90;;;;;;5042141;28;20753;-83
2021/04/24 06:47:47;;;;;;;1999.90;999.90;;;7.80;99.90;;;;;;5042226;28;20188;-80
2021/04/24 06:50:14;;;;;;;1999.90;999.90;;;7.90;99.90;;;;;;5023792;28;20169;-83
2021/04/24 06:52:40;;;;;;;1999.90;999.90;;;7.90;99.90;;;;;;5040400;28;20169;-81
2021/04/24 06:55:18;;;;;;;1999.90;999.90;;;8.00;99.90;;;;;;5023103;28;20260;-81
2021/04/24 06:57:46;;;;;;;1999.90;999.90;;;8.10;99.90;;;;;;5022215;28;20463;-81
2021/04/24 07:00:14;;;;;;;1999.90;999.90;;;8.10;99.90;;;;;;5040726;28;20184;-81
2021/04/24 07:02:40;;;;;;;1999.90;999.90;;;8.20;99.90;;;;;;5040295;28;20193;-82
2021/04/24 07:05:08;;;;;;;1999.90;999.90;;;8.30;99.90;;;;;;5040457;28;20215;-83
2021/04/24 07:07:34;;;;;;;1999.90;999.90;;;8.40;99.90;;;;;;5040666;28;20207;-83
2021/04/24 07:09:59;;;;;;;1999.90;999.90;;;8.40;99.90;;;;;;5040508;28;20529;-80
2021/04/24 07:12:25;;;;;;;1999.90;999.90;;;8.50;99.90;;;;;;5021215;28;20245;-81
2021/04/24 07:14:51;;;;;;;1999.90;999.90;;;8.50;99.90;;;;;;5039892;28;20176;-83
2021/04/24 07:17:19;;;;;;;1999.90;999.90;;;8.60;99.90;;;;;;5040405;28;20311;-81
2021/04/24 07:19:45;;;;;;;1999.90;999.90;;;8.70;99.90;;;;;;5022306;28;20169;-80
2021/04/24 07:22:11;;;;;;;1999.90;999.90;;;8.70;99.90;;;;;;5022352;28;20196;-81
2021/04/24 07:24:37;;;;;;;1999.90;999.90;;;8.70;97.50;;;;;;5024565;28;20165;-81
2021/04/24 07:27:02;;;;;;;1999.90;999.90;;;8.70;95.90;;;;;;5042883;28;20260;-80
2021/04/24 07:29:28;;;;;;;1999.90;999.90;;;8.70;94.30;;;;;;5023525;28;20934;-81
2021/04/24 07:31:54;;;;;;;1999.90;999.90;;;8.80;91.10;;;;;;5025186;28;20419;-83
2021/04/24 07:34:22;;;;;;;1999.90;999.90;;;8.80;87.00;;;;;;5041392;28;20174;-84
2021/04/24 07:36:48;;;;;;;1999.90;999.90;;;8.80;82.10;;;;;;5040394;28;20552;-83
2021/04/24 07:39:14;;;;;;;1999.90;999.90;;;8.90;85.30;;;;;;5022833;28;20176;-83
2021/04/24 07:41:39;;;;;;;1999.90;999.90;;;8.90;85.80;;;;;;5040532;28;20617;-83
2021/04/24 07:44:05;;;;;;;1999.90;999.90;;;9.00;86.40;;;;;;5040566;28;20569;-82
2021/04/24 07:46:31;;;;;;;1999.90;999.90;;;9.10;83.30;;;;;;5041337;28;20648;-81
2021/04/24 07:48:57;;;;;;;1999.90;999.90;;;9.00;72.80;;;;;;5023174;28;20172;-81
2021/04/24 07:51:22;;;;;;;1999.90;999.90;;;9.00;73.70;;;;;;5041892;28;20231;-82
2021/04/24 07:53:48;;;;;;;1999.90;999.90;;;9.00;71.30;;;;;;5041186;28;20173;-83
2021/04/24 07:56:14;;;;;;;1999.90;999.90;;;9.00;73.50;;;;;;5041401;28;20176;-83
2021/04/24 07:58:40;;;;;;;1999.90;999.90;;;9.10;75.70;;;;;;5023383;28;20180;-84
2021/04/24 08:01:05;;;;;;;1999.90;999.90;;;9.10;80.80;;;;;;5041799;28;20193;-82
2021/04/24 08:03:31;;;;;;;1999.90;999.90;;;9.20;74.40;;;;;;5024771;28;20652;-83
2021/04/24 08:05:57;;;;;;;1999.90;999.90;;;9.20;71.90;;;;;;5041660;28;20284;-84
2021/04/24 08:08:22;;;;;;;1999.90;999.90;;;9.30;75.80;;;;;;5042606;28;20177;-84
2021/04/24 08:10:54;;;;;;;1999.90;999.90;;;9.30;66.70;;;;;;5041773;28;20165;-83
2021/04/24 08:13:22;;;;;;;1999.90;999.90;;;9.20;71.70;;;;;;5040338;28;20145;-83
2021/04/24 08:15:49;;;;;;;1999.90;999.90;;;9.10;67.30;;;;;;5025075;28;20177;-82
2021/04/24 08:18:15;;;;;;;1999.90;999.90;;;9.10;69.50;;;;;;5042364;28;20199;-84
2021/04/24 08:20:41;;;;;;;1999.90;999.90;;;9.30;62.00;;;;;;5043453;28;20597;-84
2021/04/24 08:23:06;;;;;;;1999.90;999.90;;;9.40;56.00;;;;;;5025849;28;20188;-84
2021/04/24 08:25:35;;;;;;;1999.90;999.90;;;9.40;59.00;;;;;;5042540;28;20282;-84
2021/04/24 08:28:04;;;;;;;1999.90;999.90;;;9.50;57.80;;;;;;5024660;28;21012;-82
2021/04/24 08:30:30;;;;;;;1999.90;999.90;;;9.60;60.60;;;;;;5024259;28;20172;-84
2021/04/24 08:32:57;;;;;;;1999.90;999.90;;;9.70;57.50;;;;;;5021802;28;20187;-84
2021/04/24 08:35:22;;;;;;;1999.90;999.90;;;9.70;63.80;;;;;;5040214;28;20165;-84
2021/04/24 08:37:50;;;;;;;1999.90;999.90;;;9.80;56.90;;;;;;5023101;28;20316;-82
2021/04/24 08:40:17;;;;;;;1999.90;999.90;;;9.90;50.80;;;;;;5040222;28;20196;-83
2021/04/24 08:42:43;;;;;;;1999.90;999.90;;;9.70;44.80;;;;;;5040548;28;20181;-82
2021/04/24 08:45:19;;;;;;;1999.90;999.90;;;9.60;47.20;;;;;;5022996;28;20188;-84
2021/04/24 08:47:53;;;;;;;1999.90;999.90;;;9.80;45.60;;;;;;5040123;28;20184;-83
2021/04/24 08:50:26;;;;;;;1999.90;999.90;;;9.90;40.40;;;;;;5040425;28;20149;-83
2021/04/24 08:52:53;;;;;;;1999.90;999.90;;;10.00;33.30;;;;;;5040774;28;20146;-81
2021/04/24 08:55:24;;;;;;;1999.90;999.90;;;10.10;30.70;;;;;;5024073;28;20211;-81
2021/04/24 08:57:51;;;;;;;1999.90;999.90;;;10.20;34.80;;;;;;5041200;28;20189;-84
2021/04/24 09:00:20;;;;;;;1999.90;999.90;;;10.20;27.90;;;;;;5040352;28;20237;-84
2021/04/24 09:02:47;;;;;;;1999.90;999.90;;;10.30;29.20;;;;;;5022122;28;20216;-83
2021/04/24 09:05:16;;;;;;;1999.90;999.90;;;10.30;28.80;;;;;;5040869;28;20174;-84
2021/04/24 09:07:43;;;;;;;1999.90;999.90;;;10.40;23.40;;;;;;5039936;28;20181;-84
2021/04/24 09:10:16;;;;;;;1999.90;999.90;;;10.40;26.30;;;;;;5039976;28;20168;-84
2021/04/24 09:12:46;;;;;;;1999.90;999.90;;;10.50;26.30;;;;;;5023448;28;20166;-84
2021/04/24 09:15:17;;;;;;;1999.90;999.90;;;10.50;24.40;;;;;;5040422;28;20168;-84
2021/04/24 09:17:57;;;;;;;1999.90;999.90;;;10.50;23.00;;;;;;5021584;28;20558;-84
2021/04/24 09:20:44;;;;;;;1999.90;999.90;;;10.50;23.40;;;;;;5022232;28;20158;-84
2021/04/24 09:23:16;;;;;;;1999.90;999.90;;;10.70;24.70;;;;;;5038115;28;20268;-83
2021/04/24 09:26:13;;;;;;;1999.90;999.90;;;10.80;23.20;;;;;;5019767;28;20245;-83
2021/04/24 09:28:57;;;;;;;1999.90;999.90;;;11.00;23.30;;;;;;5019686;28;20161;-84
2021/04/24 09:31:27;;;;;;;1999.90;999.90;;;11.10;21.40;;;;;;5020803;28;20248;-84
2021/04/24 09:33:58;;;;;;;1999.90;999.90;;;11.30;17.90;;;;;;5039142;28;20229;-84
2021/04/24 09:36:33;;;;;;;1999.90;999.90;;;11.30;17.40;;;;;;5023652;28;20168;-84
2021/04/24 09:39:04;;;;;;;1999.90;999.90;;;11.30;19.10;;;;;;5023870;28;20572;-84
2021/04/24 09:41:35;;;;;;;1999.90;999.90;;;11.50;17.40;;;;;;5042672;28;20181;-84
2021/04/24 09:44:24;;;;;;;;;;;;;;;;;;;;;
2021/04/24 09:46:57;;;;;;;1999.90;999.90;;;11.60;13.10;;;;;;5046188;23;20223;-84
2021/04/24 09:49:38;;;;;;;1999.90;999.90;;;11.60;13.60;;;;;;5038689;28;20203;-84
2021/04/24 09:52:29;;;;;;;1999.90;999.90;;;11.50;15.70;;;;;;5022954;28;20183;-85
2021/04/24 09:54:55;;;;;;;1999.90;999.90;;;11.60;17.70;;;;;;5022217;28;20179;-87
2021/04/24 09:57:21;;;;;;;1999.90;999.90;;;11.60;12.40;;;;;;5040427;28;20213;-85
2021/04/24 10:00:10;;;;;;;1999.90;999.90;;;11.60;15.70;;;;;;5020124;28;20188;-85
2021/04/24 10:02:52;;;;;;;;;;;;;;;;;;;;;
2021/04/24 10:05:38;;;;;;;1999.90;999.90;;;11.70;17.50;;;;;;5038345;28;20165;-85
2021/04/24 10:08:28;;;;;;;1999.90;999.90;;;11.80;16.30;;;;;;5021160;28;20198;-86
2021/04/24 10:25:03;;;;;;;1999.90;999.90;;;12.40;11.70;;;;;;4987007;28;20234;-84
2021/04/24 10:44:17;;;;;;;1999.90;999.90;;;12.80;6.50;;;;;;4809925;29;20189;-81
2021/04/24 10:56:00;;;;;;;1999.90;999.90;;;13.60;9.90;;;;;;4928944;29;20255;-84
2021/04/24 10:59:28;;;;;;;1999.90;999.90;;;13.80;9.00;;;;;;5128115;23;20221;-84
2021/04/24 11:08:28;;;;;;;1999.90;999.90;;;13.70;2.10;;;;;;4991560;28;20194;-86
2021/04/24 11:11:23;;;;;;;1999.90;999.90;;;14.10;4.20;;;;;;5003675;28;20178;-86
2021/04/24 11:14:09;;;;;;;1999.90;999.90;;;14.40;3.10;;;;;;5016557;28;20687;-86
2021/04/24 11:17:08;;;;;;;1999.90;999.90;;;14.40;1.70;;;;;;5015676;28;20702;-85
2021/04/24 11:20:12;;;;;;;1999.90;999.90;;;14.60;1.00;;;;;;5015239;28;20178;-85
2021/04/24 11:22:44;;;;;;;1999.90;999.90;;;14.90;1.00;;;;;;5012039;28;20233;-84
2021/04/24 11:25:36;;;;;;;1999.90;999.90;;;14.90;1.00;;;;;;5022159;28;20881;-87
2021/04/24 11:28:08;;;;;;;1999.90;999.90;;;14.80;1.00;;;;;;4998286;28;20443;-87
2021/04/24 11:30:58;;;;;;;1999.90;999.90;;;14.90;1.00;;;;;;5017980;28;20413;-86
2021/04/24 11:33:42;;;;;;;1999.90;999.90;;;15.00;1.00;;;;;;4999273;28;20419;-86
2021/04/24 11:36:32;;;;;;;1999.90;999.90;;;15.00;1.00;;;;;;4999004;28;20409;-86
2021/04/24 11:39:33;;;;;;;1999.90;999.90;;;15.10;1.00;;;;;;4998913;28;20405;-86
2021/04/24 11:42:18;;;;;;;1999.90;999.90;;;15.20;1.00;;;;;;4991271;28;20843;-86
2021/04/24 11:44:48;;;;;;;1999.90;999.90;;;15.50;1.00;;;;;;5016960;28;20823;-85
2021/04/24 11:47:40;;;;;;;1999.90;999.90;;;15.70;1.00;;;;;;5016852;28;20427;-85
2021/04/24 11:50:37;;;;;;;1999.90;999.90;;;15.90;1.00;;;;;;5000512;28;20424;-86
2021/04/24 11:53:08;;;;;;;1999.90;999.90;;;16.30;1.00;;;;;;5000095;28;20509;-85
2021/04/24 11:55:39;;;;;;;1999.90;999.90;;;16.30;1.00;;;;;;5018458;28;20857;-86
2021/04/24 12:05:28;;;;;;;1999.90;999.90;;;15.50;1.00;;;;;;4892303;29;20966;-87
2021/04/24 12:12:38;;;;;;;1999.90;999.90;;;15.80;1.00;;;;;;5017314;28;20472;-86
2021/04/24 12:15:22;;;;;;;1999.90;999.90;;;15.90;1.00;;;;;;4920985;29;20415;-86
2021/04/24 12:17:54;;;;;;;1999.90;999.90;;;16.20;1.00;;;;;;4921711;29;20963;-86
2021/04/24 12:20:45;;;;;;;1999.90;999.90;;;16.30;1.00;;;;;;4997820;28;20409;-86
2021/04/24 12:23:13;;;;;;;1999.90;999.90;;;16.60;1.00;;;;;;5015964;28;20421;-86
2021/04/24 12:25:46;;;;;;;1999.90;999.90;;;16.50;1.00;;;;;;4996101;28;20792;-86
2021/04/24 12:28:22;;;;;;;1999.90;999.90;;;16.50;1.00;;;;;;4998151;28;20425;-86
2021/04/24 12:30:56;;;;;;;1999.90;999.90;;;16.30;1.00;;;;;;4998176;28;20409;-85
2021/04/24 12:33:42;;;;;;;1999.90;999.90;;;16.40;1.00;;;;;;5000119;28;20903;-86
2021/04/24 12:36:43;;;;;;;1999.90;999.90;;;16.10;1.00;;;;;;5001028;28;20397;-86
2021/04/24 12:39:30;;;;;;;1999.90;999.90;;;16.50;1.00;;;;;;5017981;28;20377;-86
2021/04/24 12:41:59;;;;;;;1999.90;999.90;;;16.70;1.00;;;;;;4999720;28;20518;-86
2021/04/24 12:44:37;;;;;;;1999.90;999.90;;;16.50;1.00;;;;;;5001540;28;20405;-85
2021/04/24 12:47:12;;;;;;;1999.90;999.90;;;15.90;1.00;;;;;;4999012;28;20938;-85
2021/04/24 12:49:41;;;;;;;1999.90;999.90;;;16.10;1.00;;;;;;5015511;28;20411;-85
2021/04/24 12:52:11;;;;;;;1999.90;999.90;;;16.50;1.00;;;;;;5014873;28;20413;-85
2021/04/24 12:54:39;;;;;;;1999.90;999.90;;;16.50;1.00;;;;;;5015590;28;20942;-84
2021/04/24 12:57:10;;;;;;;1999.90;999.90;;;16.40;1.00;;;;;;4998009;28;20436;-84
2021/04/24 12:59:36;;;;;;;1999.90;999.90;;;16.60;1.00;;;;;;5017841;28;20405;-85
2021/04/24 13:02:02;;;;;;;1999.90;999.90;;;16.60;1.00;;;;;;5016979;28;20475;-83
2021/04/24 13:04:28;;;;;;;1999.90;999.90;;;16.30;1.00;;;;;;5016637;28;20405;-84
2021/04/24 13:07:01;;;;;;;1999.90;999.90;;;16.20;1.00;;;;;;4999441;28;20459;-83
2021/04/24 13:09:37;;;;;;;1999.90;999.90;;;16.10;1.00;;;;;;5017071;28;20534;-84
2021/04/24 13:12:13;;;;;;;1999.90;999.90;;;16.00;1.00;;;;;;5021044;28;20386;-84
2021/04/24 13:14:45;;;;;;;1999.90;999.90;;;16.30;1.00;;;;;;5002786;28;20791;-84
2021/04/24 13:17:16;;;;;;;1999.90;999.90;;;16.40;1.00;;;;;;5020703;28;20448;-84
2021/04/24 13:19:53;;;;;;;1999.90;999.90;;;16.50;1.00;;;;;;5004345;28;20405;-85